Time;durP1;ratioP1;P1;durP2;ratioP2;P2;SDS_P1;SDS_P2;PMS_P1;PMS_P2;Temp;Humidity;BMP_temperature;BMP_pressure;BME280_temperature;BME280_humidity;BME280_pressure;Samples;Min_cycle;Max_cycle;Signal;HPM_P1;HPM_P2
2022/01/05 00:00:38;;;;;;;;;0.25;0.00;;;;;22.40;36.56;100240.34;5038479;28;45431;-56
2022/01/05 00:03:04;;;;;;;;;0.00;0.00;;;;;22.39;36.50;100241.31;5056385;28;45460;-51
2022/01/05 00:05:30;;;;;;;;;0.75;0.25;;;;;22.38;36.43;100252.81;5056553;28;45367;-57
2022/01/05 00:07:55;;;;;;;;;0.00;0.00;;;;;22.35;36.47;100248.59;5038010;28;45357;-57
2022/01/05 00:10:21;;;;;;;;;1.00;1.00;;;;;22.33;36.35;100255.78;5055254;28;45199;-55
2022/01/05 00:12:46;;;;;;;;;0.00;0.00;;;;;22.32;36.27;100258.56;5055961;28;45376;-55
2022/01/05 00:15:11;;;;;;;;;0.00;0.00;;;;;22.31;36.40;100262.97;5055986;28;45280;-57
2022/01/05 00:17:37;;;;;;;;;1.00;1.00;;;;;22.29;36.12;100275.44;5056170;28;45294;-55
2022/01/05 00:20:04;;;;;;;;;0.00;0.00;;;;;22.28;36.32;100281.66;5056727;28;45666;-57
2022/01/05 00:22:29;;;;;;;;;0.00;0.00;;;;;22.24;35.99;100257.28;5056147;28;45526;-58
2022/01/05 00:24:55;;;;;;;;;2.50;1.00;;;;;22.23;36.39;100266.16;5056130;28;45479;-57
2022/01/05 00:27:20;;;;;;;;;0.50;0.50;;;;;22.21;36.17;100270.69;5056046;28;45387;-58
2022/01/05 00:29:46;;;;;;;;;0.00;0.00;;;;;22.20;36.05;100261.13;5056147;28;45414;-58
2022/01/05 00:32:12;;;;;;;;;0.50;0.50;;;;;22.17;36.54;100271.88;5055966;28;46953;-57
2022/01/05 00:34:37;;;;;;;;;0.00;0.00;;;;;22.16;35.96;100267.56;5055859;28;45281;-57
2022/01/05 00:37:03;;;;;;;;;0.00;0.00;;;;;22.14;36.11;100271.25;5056255;28;45411;-57
2022/01/05 00:39:29;;;;;;;;;1.00;1.00;;;;;22.14;35.79;100287.09;5056051;28;45261;-57
2022/01/05 00:41:54;;;;;;;;;0.00;0.00;;;;;22.06;36.11;100282.34;5055596;28;46286;-57
2022/01/05 00:44:20;;;;;;;;;0.25;0.25;;;;;22.06;36.15;100280.56;5055846;28;45252;-56
2022/01/05 00:46:46;;;;;;;;;1.00;1.00;;;;;22.05;35.98;100283.31;5056040;28;45316;-58
2022/01/05 00:49:12;;;;;;;;;0.25;0.00;;;;;22.02;35.63;100283.53;5059525;28;45296;-57
2022/01/05 00:51:38;;;;;;;;;0.00;0.00;;;;;22.00;36.07;100294.19;5059147;28;45511;-57
2022/01/05 00:54:04;;;;;;;;;0.50;0.50;;;;;22.00;36.02;100296.84;5059422;28;45479;-58
2022/01/05 00:56:30;;;;;;;;;1.00;1.00;;;;;21.96;35.54;100302.44;5041291;28;45486;-58
2022/01/05 00:58:55;;;;;;;;;1.00;1.00;;;;;21.96;35.71;100295.34;5059242;28;45320;-57
2022/01/05 01:01:21;;;;;;;;;0.00;0.00;;;;;21.93;35.68;100308.78;5058976;28;46279;-56
2022/01/05 01:03:46;;;;;;;;;1.00;1.00;;;;;21.92;35.58;100307.91;5059050;28;45761;-58
2022/01/05 01:06:11;;;;;;;;;0.25;0.25;;;;;21.90;35.79;100317.72;5059209;28;45517;-58
2022/01/05 01:08:37;;;;;;;;;0.00;0.00;;;;;21.88;35.71;100318.78;5059007;28;45708;-54
2022/01/05 01:11:02;;;;;;;;;3.00;1.25;;;;;21.86;35.49;100318.91;5059198;28;46478;-58
2022/01/05 01:13:27;;;;;;;;;0.75;0.50;;;;;21.85;35.88;100317.22;5058837;28;45387;-59
2022/01/05 01:15:53;;;;;;;;;0.00;0.00;;;;;21.83;35.46;100319.13;5059078;28;45365;-58
2022/01/05 01:18:20;;;;;;;;;3.50;1.00;;;;;21.82;35.72;100329.78;5059138;28;45534;-60
2022/01/05 01:20:49;;;;;;;;;2.00;1.00;;;;;21.80;35.48;100332.50;5058825;28;45498;-58
2022/01/05 01:23:18;;;;;;;;;0.00;0.00;;;;;21.79;35.78;100336.09;5058910;28;45799;-60
2022/01/05 01:25:44;;;;;;;;;2.00;0.00;;;;;21.77;35.61;100335.38;5041420;28;45419;-57
2022/01/05 01:28:10;;;;;;;;;1.25;1.00;;;;;21.76;35.75;100338.97;5059167;28;45352;-58
2022/01/05 01:30:35;;;;;;;;;1.25;1.25;;;;;21.74;35.23;100348.75;5058943;28;45595;-55
2022/01/05 01:33:01;;;;;;;;;0.00;0.00;;;;;21.73;35.39;100347.91;5058702;28;45304;-57
2022/01/05 01:35:26;;;;;;;;;1.00;1.00;;;;;21.72;35.41;100353.28;5058792;28;45292;-56
2022/01/05 01:37:53;;;;;;;;;0.00;0.00;;;;;21.68;35.45;100346.53;5040850;28;45388;-57
2022/01/05 01:40:19;;;;;;;;;1.00;1.00;;;;;21.68;35.48;100359.72;5058454;28;45478;-57
2022/01/05 01:42:45;;;;;;;;;1.50;0.00;;;;;21.67;35.00;100358.88;5058461;28;45416;-57
2022/01/05 01:45:11;;;;;;;;;1.00;0.75;;;;;21.63;35.46;100367.94;5058512;28;45341;-57
2022/01/05 01:47:36;;;;;;;;;0.00;0.00;;;;;21.62;35.79;100366.25;5058930;28;45252;-57
2022/01/05 01:50:02;;;;;;;;;0.25;0.25;;;;;21.61;35.46;100381.25;5058242;28;46776;-56
2022/01/05 01:52:28;;;;;;;;;1.00;1.00;;;;;21.62;35.68;100382.94;5058140;28;45950;-57
2022/01/05 01:54:53;;;;;;;;;1.00;1.00;;;;;21.61;35.47;100375.97;5040301;28;45678;-58
2022/01/05 01:57:22;;;;;;;;;0.25;0.25;;;;;21.67;35.14;100384.41;5058483;28;45343;-58
2022/01/05 01:59:48;;;;;;;;;0.00;0.00;;;;;21.69;35.43;100387.78;5057072;28;46308;-57
2022/01/05 02:02:17;;;;;;;;;2.50;1.50;;;;;21.74;35.33;100396.25;5058154;28;45336;-57
2022/01/05 02:04:43;;;;;;;;;1.00;1.00;;;;;21.75;35.33;100393.50;5058155;28;45364;-56
2022/01/05 02:07:09;;;;;;;;;0.00;0.00;;;;;21.80;35.47;100398.44;5058711;28;45470;-55
2022/01/05 02:09:35;;;;;;;;;1.00;1.00;;;;;21.84;35.39;100405.22;5040095;28;48110;-57
2022/01/05 02:12:01;;;;;;;;;1.00;1.00;;;;;21.87;35.44;100412.94;5058035;28;45698;-57
2022/01/05 02:14:26;;;;;;;;;1.00;1.00;;;;;21.90;35.27;100417.97;5058111;28;45233;-58
2022/01/05 02:16:52;;;;;;;;;1.00;1.00;;;;;21.93;35.45;100411.69;5058070;28;45252;-57
2022/01/05 02:19:17;;;;;;;;;1.00;1.00;;;;;21.97;35.45;100417.59;5057725;28;45356;-58
2022/01/05 02:21:43;;;;;;;;;1.00;1.00;;;;;22.00;35.24;100423.50;5058022;28;45367;-56
2022/01/05 02:24:10;;;;;;;;;0.00;0.00;;;;;22.04;35.48;100426.75;5058289;28;45356;-57
2022/01/05 02:26:37;;;;;;;;;0.75;0.75;;;;;22.06;35.40;100428.34;5058338;28;45336;-57
2022/01/05 02:29:03;;;;;;;;;1.00;1.00;;;;;22.09;35.39;100432.59;5057733;28;45667;-57
2022/01/05 02:31:28;;;;;;;;;1.00;1.00;;;;;22.11;35.50;100430.66;5057525;28;45285;-57
2022/01/05 02:33:54;;;;;;;;;1.25;0.75;;;;;22.13;35.08;100436.69;5057879;28;45359;-57
2022/01/05 02:36:21;;;;;;;;;0.75;0.75;;;;;22.16;35.05;100439.13;5057943;28;45601;-57
2022/01/05 02:38:48;;;;;;;;;0.50;0.50;;;;;22.18;35.32;100434.59;5039405;28;47495;-58
2022/01/05 02:41:14;;;;;;;;;1.00;1.00;;;;;22.20;34.86;100437.97;5057348;28;45712;-54
2022/01/05 02:43:42;;;;;;;;;1.50;0.25;;;;;22.22;35.01;100428.13;5057980;28;45339;-58
2022/01/05 02:46:12;;;;;;;;;0.00;0.00;;;;;22.21;35.23;100431.72;5057934;28;45299;-57
2022/01/05 02:48:39;;;;;;;;;4.00;1.00;;;;;22.22;34.88;100425.47;5057658;28;45368;-58
2022/01/05 02:51:05;;;;;;;;;0.75;0.00;;;;;22.20;34.90;100432.69;5057279;28;45485;-57
2022/01/05 02:53:31;;;;;;;;;0.00;0.00;;;;;22.23;34.96;100432.47;5057395;28;45470;-59
2022/01/05 02:55:57;;;;;;;;;2.00;1.00;;;;;22.23;34.94;100439.53;5057696;28;45406;-59
2022/01/05 02:58:22;;;;;;;;;1.75;1.00;;;;;22.21;35.08;100439.63;5057032;28;46602;-57
2022/01/05 03:00:47;;;;;;;;;0.00;0.00;;;;;22.21;35.10;100437.00;5057200;28;45411;-58
2022/01/05 03:03:13;;;;;;;;;2.25;2.25;;;;;22.19;34.62;100448.63;5057433;28;45359;-58
2022/01/05 03:05:38;;;;;;;;;0.50;0.50;;;;;22.19;35.16;100445.97;5057730;28;45312;-58
2022/01/05 03:08:04;;;;;;;;;1.00;0.75;;;;;22.19;35.09;100449.47;5056859;28;46447;-58
2022/01/05 03:10:29;;;;;;;;;1.75;1.00;;;;;22.18;35.03;100458.34;5056676;28;45301;-58
2022/01/05 03:12:55;;;;;;;;;0.50;0.00;;;;;22.17;34.91;100456.66;5057173;28;45476;-58
2022/01/05 03:15:20;;;;;;;;;0.00;0.00;;;;;22.14;34.78;100456.84;5057012;28;45520;-58
2022/01/05 03:17:46;;;;;;;;;2.00;1.00;;;;;22.15;34.82;100466.47;5056734;28;46495;-58
2022/01/05 03:20:12;;;;;;;;;0.00;0.00;;;;;22.15;35.06;100474.38;5057193;28;45243;-57
2022/01/05 03:22:39;;;;;;;;;1.00;1.00;;;;;22.13;35.06;100471.00;5057465;28;45814;-57
2022/01/05 03:25:05;;;;;;;;;1.00;1.00;;;;;22.11;35.00;100472.88;5057095;28;45336;-58
2022/01/05 03:27:31;;;;;;;;;0.50;0.50;;;;;22.11;34.85;100475.53;5056668;28;45351;-58
2022/01/05 03:29:56;;;;;;;;;0.50;0.50;;;;;22.08;34.62;100473.13;5056680;28;45362;-56
2022/01/05 03:32:23;;;;;;;;;1.75;0.00;;;;;22.09;34.59;100480.09;5056924;28;45351;-58
2022/01/05 03:34:51;;;;;;;;;1.00;1.00;;;;;22.07;34.98;100487.25;5056948;28;45545;-58
2022/01/05 03:37:16;;;;;;;;;0.75;0.75;;;;;22.06;34.76;100488.19;5056561;28;46570;-58
2022/01/05 03:39:41;;;;;;;;;1.00;0.75;;;;;22.05;34.84;100489.16;5056794;28;45243;-58
2022/01/05 03:42:07;;;;;;;;;0.00;0.00;;;;;22.03;34.58;100497.19;5056752;28;45301;-58
2022/01/05 03:44:34;;;;;;;;;0.00;0.00;;;;;22.01;34.73;100503.50;5056861;28;45257;-58
2022/01/05 03:47:00;;;;;;;;;2.00;0.50;;;;;22.01;34.99;100508.75;5056398;28;46467;-57
2022/01/05 03:49:25;;;;;;;;;1.00;1.00;;;;;21.99;34.50;100508.03;5056386;28;45508;-58
2022/01/05 03:51:50;;;;;;;;;0.25;0.25;;;;;21.98;34.85;100511.63;5056574;28;45902;-58
2022/01/05 03:54:16;;;;;;;;;1.00;1.00;;;;;21.96;34.60;100521.44;5056928;28;45332;-59
2022/01/05 03:56:41;;;;;;;;;2.00;1.00;;;;;21.93;34.77;100520.69;5056676;28;46349;-58
2022/01/05 03:59:06;;;;;;;;;1.50;1.50;;;;;21.92;34.39;100521.63;5056249;28;45389;-58
2022/01/05 04:01:32;;;;;;;;;1.25;1.25;;;;;21.90;34.58;100523.53;5038401;28;45361;-57
2022/01/05 04:03:57;;;;;;;;;1.00;1.00;;;;;21.90;34.52;100525.31;5056604;28;45320;-58
2022/01/05 04:06:22;;;;;;;;;0.00;0.00;;;;;21.84;34.56;100518.66;5056244;28;46465;-58
2022/01/05 04:08:48;;;;;;;;;1.75;0.25;;;;;21.84;34.56;100526.56;5056117;28;45361;-57
2022/01/05 04:11:13;;;;;;;;;2.75;1.75;;;;;21.86;34.33;100535.25;5056557;28;45342;-58
2022/01/05 04:13:39;;;;;;;;;3.00;1.50;;;;;21.84;34.50;100528.34;5056385;28;45243;-57
2022/01/05 04:16:05;;;;;;;;;2.75;1.50;;;;;21.81;34.35;100537.31;5055880;28;46559;-56
2022/01/05 04:18:30;;;;;;;;;2.00;0.75;;;;;21.81;34.30;100539.97;5056066;28;45490;-58
2022/01/05 04:20:55;;;;;;;;;1.50;0.00;;;;;21.78;34.28;100545.44;5056189;28;45276;-56
2022/01/05 04:23:21;;;;;;;;;4.75;1.25;;;;;21.78;34.26;100546.28;5058738;28;45636;-56
2022/01/05 04:25:46;;;;;;;;;0.00;0.00;;;;;21.76;34.33;100542.06;5059558;28;46161;-57
2022/01/05 04:28:11;;;;;;;;;2.00;2.00;;;;;21.75;34.56;100550.94;5041778;28;45929;-58
2022/01/05 04:30:37;;;;;;;;;1.25;0.25;;;;;21.72;34.60;100543.22;5059591;28;45734;-58
2022/01/05 04:33:02;;;;;;;;;1.00;1.00;;;;;21.73;34.10;100552.81;5059762;28;45674;-58
2022/01/05 04:35:27;;;;;;;;;2.00;0.00;;;;;21.69;34.13;100552.16;5059457;28;46344;-58
2022/01/05 04:37:53;;;;;;;;;0.50;0.50;;;;;21.69;34.39;100551.31;5041384;28;46072;-58
2022/01/05 04:40:18;;;;;;;;;0.00;0.00;;;;;21.67;34.65;100548.78;5059545;28;45416;-58
2022/01/05 04:42:44;;;;;;;;;0.00;0.00;;;;;21.65;34.21;100549.84;5059735;28;45494;-58
2022/01/05 04:45:09;;;;;;;;;1.75;1.75;;;;;21.65;34.41;100558.56;5059154;28;45465;-58
2022/01/05 04:47:35;;;;;;;;;2.25;0.50;;;;;21.66;34.60;100556.81;5059271;28;45389;-58
2022/01/05 04:50:00;;;;;;;;;1.00;1.00;;;;;21.68;34.72;100563.66;5059349;28;45383;-58
2022/01/05 04:52:26;;;;;;;;;1.00;1.00;;;;;21.71;34.41;100566.13;5059548;28;45373;-58
2022/01/05 04:54:51;;;;;;;;;2.00;1.00;;;;;21.75;34.79;100574.66;5059056;28;45896;-57
2022/01/05 04:57:16;;;;;;;;;3.00;1.00;;;;;21.77;34.16;100570.97;5059201;28;45707;-55
2022/01/05 04:59:42;;;;;;;;;0.50;0.25;;;;;21.81;34.57;100574.25;5059418;28;45419;-58
2022/01/05 05:02:08;;;;;;;;;0.00;0.00;;;;;21.84;34.79;100571.44;5041276;28;45566;-58
2022/01/05 05:04:34;;;;;;;;;1.00;1.00;;;;;21.87;34.71;100579.16;5058750;28;46418;-58
2022/01/05 05:06:59;;;;;;;;;1.75;0.25;;;;;21.91;34.84;100577.97;5058828;28;45411;-58
2022/01/05 05:09:25;;;;;;;;;2.75;1.00;;;;;21.95;34.29;100575.97;5058818;28;45559;-58
2022/01/05 05:11:51;;;;;;;;;1.25;1.00;;;;;21.98;34.47;100578.44;5059157;28;45541;-57
2022/01/05 05:14:16;;;;;;;;;1.00;0.00;;;;;21.99;34.33;100588.03;5059063;28;46293;-58
2022/01/05 05:16:42;;;;;;;;;2.50;0.75;;;;;22.01;34.65;100590.56;5058838;28;45238;-58
2022/01/05 05:19:07;;;;;;;;;1.00;1.00;;;;;22.05;34.34;100592.91;5058805;28;45335;-58
2022/01/05 05:21:33;;;;;;;;;1.50;1.00;;;;;22.06;34.63;100593.78;5059122;28;45372;-58
2022/01/05 05:23:58;;;;;;;;;1.00;1.00;;;;;22.09;34.06;100601.50;5058755;28;45508;-58
2022/01/05 05:26:23;;;;;;;;;2.75;1.00;;;;;22.12;34.60;100611.81;5058664;28;45383;-58
2022/01/05 05:28:49;;;;;;;;;1.00;1.00;;;;;22.14;34.53;100602.03;5058713;28;45896;-57
2022/01/05 05:31:14;;;;;;;;;1.00;1.00;;;;;22.16;34.18;100605.41;5059275;28;45414;-58
2022/01/05 05:33:40;;;;;;;;;2.25;2.00;;;;;22.18;34.39;100607.94;5058260;28;45564;-58
2022/01/05 05:36:05;;;;;;;;;1.00;1.00;;;;;22.21;34.30;100627.06;5058511;28;45470;-58
2022/01/05 05:38:30;;;;;;;;;4.75;2.00;;;;;22.21;34.44;100616.50;5058530;28;45443;-58
2022/01/05 05:40:56;;;;;;;;;2.00;2.00;;;;;22.26;34.34;100625.91;5058784;28;45733;-58
2022/01/05 05:43:21;;;;;;;;;2.25;0.75;;;;;22.26;34.20;100629.41;5040209;28;48221;-58
2022/01/05 05:45:47;;;;;;;;;2.00;1.00;;;;;22.28;34.13;100626.66;5040743;28;45312;-58
2022/01/05 05:48:12;;;;;;;;;1.50;1.00;;;;;22.30;34.15;100637.97;5040371;28;45348;-58
2022/01/05 05:50:38;;;;;;;;;1.25;1.25;;;;;22.29;34.20;100645.03;5058645;28;45332;-58
2022/01/05 05:53:03;;;;;;;;;2.00;1.00;;;;;22.31;34.45;100644.94;5058096;28;46362;-58
2022/01/05 05:55:29;;;;;;;;;1.00;1.00;;;;;22.29;34.08;100655.59;5058280;28;45217;-59
2022/01/05 05:57:54;;;;;;;;;1.50;0.25;;;;;22.30;34.14;100651.19;5058200;28;45411;-57
2022/01/05 06:00:21;;;;;;;;;0.75;0.75;;;;;22.29;34.44;100644.19;5058777;28;45161;-58
2022/01/05 06:02:47;;;;;;;;;1.50;0.50;;;;;22.28;34.17;100637.22;5058603;28;45233;-58
2022/01/05 06:05:12;;;;;;;;;0.25;0.25;;;;;22.24;33.86;100637.41;5058070;28;45308;-58
2022/01/05 06:07:38;;;;;;;;;0.25;0.25;;;;;22.25;34.24;100648.84;5058061;28;45331;-58
2022/01/05 06:10:04;;;;;;;;;2.50;0.00;;;;;22.25;34.22;100654.13;5058421;28;45213;-57
2022/01/05 06:12:29;;;;;;;;;2.00;1.75;;;;;22.24;34.19;100655.91;5057743;28;46648;-59
2022/01/05 06:14:54;;;;;;;;;1.25;0.75;;;;;22.23;34.29;100648.09;5057846;28;45422;-59
2022/01/05 06:17:20;;;;;;;;;1.75;1.00;;;;;22.21;32.74;100653.44;5058285;28;45333;-59
2022/01/05 06:19:45;;;;;;;;;1.75;1.00;;;;;22.20;32.64;100669.41;5057926;28;45547;-60
2022/01/05 06:22:11;;;;;;;;;2.00;2.00;;;;;22.16;32.44;100663.47;5057868;28;45431;-59
2022/01/05 06:24:39;;;;;;;;;1.75;1.00;;;;;22.12;31.44;100664.63;5057722;28;45440;-58
2022/01/05 06:27:04;;;;;;;;;1.00;1.00;;;;;22.08;31.83;100671.06;5057679;28;45309;-60
2022/01/05 06:29:30;;;;;;;;;1.00;1.00;;;;;22.03;31.86;100659.94;5039930;28;45664;-60
2022/01/05 06:31:55;;;;;;;;;1.00;1.00;;;;;22.00;31.29;100662.75;5057552;28;45419;-59
2022/01/05 06:34:20;;;;;;;;;1.00;1.00;;;;;21.96;31.19;100666.56;5039799;28;45256;-58
2022/01/05 06:36:46;;;;;;;;;2.50;2.50;;;;;21.92;31.19;100676.47;5057603;28;45256;-56
2022/01/05 06:39:11;;;;;;;;;1.25;1.25;;;;;21.88;31.41;100683.72;5057685;28;45225;-60
2022/01/05 06:41:37;;;;;;;;;1.00;1.00;;;;;21.84;31.25;100682.22;5057305;28;46079;-58
2022/01/05 06:44:02;;;;;;;;;2.00;1.00;;;;;21.81;30.93;100685.06;5039467;28;45201;-59
2022/01/05 06:46:27;;;;;;;;;3.00;0.75;;;;;21.77;31.13;100691.50;5056918;28;45273;-58
2022/01/05 06:48:53;;;;;;;;;2.25;1.00;;;;;21.73;31.64;100692.63;5057699;28;45313;-57
2022/01/05 06:51:18;;;;;;;;;3.75;1.00;;;;;21.71;31.52;100698.00;5039478;28;46541;-58
2022/01/05 06:53:43;;;;;;;;;4.25;2.00;;;;;21.70;31.62;100701.56;5057205;28;45537;-58
2022/01/05 06:56:09;;;;;;;;;1.00;0.50;;;;;21.67;31.82;100707.03;5057250;28;45278;-58
2022/01/05 06:58:34;;;;;;;;;1.00;1.00;;;;;21.67;31.71;100716.72;5057343;28;45352;-58
2022/01/05 07:01:00;;;;;;;;;2.50;1.75;;;;;21.67;31.69;100711.44;5057018;28;46597;-58
2022/01/05 07:03:25;;;;;;;;;2.00;0.00;;;;;21.65;31.81;100702.81;5057175;28;45371;-57
2022/01/05 07:05:51;;;;;;;;;1.00;1.00;;;;;21.64;32.04;100709.03;5057493;28;45406;-58
2022/01/05 07:08:17;;;;;;;;;1.00;1.00;;;;;21.61;32.34;100713.53;5056831;28;45426;-58
2022/01/05 07:10:42;;;;;;;;;1.00;1.00;;;;;21.61;32.07;100713.53;5055285;28;45453;-58
2022/01/05 07:13:08;;;;;;;;;2.00;1.00;;;;;21.60;32.61;100713.66;5055476;28;45427;-58
2022/01/05 07:15:33;;;;;;;;;1.00;1.00;;;;;21.58;32.47;100716.31;5055759;28;45350;-58
2022/01/05 07:17:59;;;;;;;;;3.00;1.50;;;;;21.57;32.36;100722.53;5055628;28;45475;-62
2022/01/05 07:20:25;;;;;;;;;1.25;1.00;;;;;21.59;32.45;100722.50;5055417;28;45786;-57
2022/01/05 07:22:50;;;;;;;;;2.75;0.50;;;;;21.58;32.83;100726.03;5055711;28;45228;-58
2022/01/05 07:25:16;;;;;;;;;2.50;1.00;;;;;21.59;32.94;100725.13;5055381;28;45218;-58
2022/01/05 07:27:42;;;;;;;;;1.00;1.00;;;;;21.58;32.43;100737.41;5055427;28;45427;-58
2022/01/05 07:30:09;;;;;;;;;2.50;0.75;;;;;21.59;32.70;100744.44;5055299;28;46482;-58
2022/01/05 07:32:35;;;;;;;;;1.00;1.00;;;;;21.60;32.77;100748.75;5037250;28;45717;-58
2022/01/05 07:35:00;;;;;;;;;2.75;0.00;;;;;21.59;32.88;100757.63;5055351;28;45419;-57
2022/01/05 07:37:25;;;;;;;;;0.50;0.50;;;;;21.60;33.12;100751.41;5055539;28;45514;-63
2022/01/05 07:39:51;;;;;;;;;3.00;0.50;;;;;21.58;32.58;100750.59;5055284;28;46441;-58
2022/01/05 07:42:16;;;;;;;;;2.00;0.00;;;;;21.60;32.77;100754.03;5055093;28;45426;-57
2022/01/05 07:44:42;;;;;;;;;1.00;1.00;;;;;21.59;33.05;100754.97;5055197;28;45457;-58
2022/01/05 07:47:08;;;;;;;;;1.00;1.00;;;;;21.60;32.69;100764.59;5037155;28;45556;-59
2022/01/05 07:49:33;;;;;;;;;1.00;1.00;;;;;21.60;32.96;100764.59;5055053;28;46186;-58
2022/01/05 07:51:59;;;;;;;;;3.25;1.00;;;;;21.59;33.20;100770.81;5054938;28;45333;-58
2022/01/05 07:54:25;;;;;;;;;2.25;2.25;;;;;21.59;32.45;100767.34;5055346;28;45432;-71
2022/01/05 07:56:50;;;;;;;;;1.75;1.00;;;;;21.58;32.69;100773.50;5054536;28;45213;-59
2022/01/05 07:59:16;;;;;;;;;1.50;0.00;;;;;21.54;32.64;100769.34;5054851;28;45439;-60
2022/01/05 08:01:41;;;;;;;;;3.00;2.00;;;;;21.51;32.71;100770.41;5054944;28;45199;-59
2022/01/05 08:04:07;;;;;;;;;1.00;1.00;;;;;21.49;32.96;100777.53;5054936;28;45741;-59
2022/01/05 08:06:32;;;;;;;;;1.50;1.00;;;;;21.48;32.84;100781.13;5055130;28;45554;-60
2022/01/05 08:08:57;;;;;;;;;1.00;1.00;;;;;21.45;32.81;100784.78;5015250;28;1140907;-61
2022/01/05 08:11:23;;;;;;;;;1.50;1.50;;;;;21.45;32.81;100794.47;5056733;28;45552;-61
2022/01/05 08:13:48;;;;;;;;;2.00;1.00;;;;;21.41;32.87;100795.63;5056550;28;45495;-61
2022/01/05 08:16:14;;;;;;;;;1.00;1.00;;;;;21.40;32.58;100804.47;5056584;28;45435;-61
2022/01/05 08:18:40;;;;;;;;;0.00;0.00;;;;;21.37;33.12;100805.50;5055208;28;45569;-61
2022/01/05 08:21:05;;;;;;;;;2.00;1.25;;;;;21.36;32.83;100805.56;5056482;28;45348;-61
2022/01/05 08:23:31;;;;;;;;;0.75;0.75;;;;;21.33;33.14;100816.31;5056186;28;45393;-60
2022/01/05 08:25:56;;;;;;;;;1.25;1.25;;;;;21.30;33.11;100809.44;5056716;28;45574;-60
2022/01/05 08:28:22;;;;;;;;;1.00;0.25;;;;;21.30;33.18;100820.84;5056017;28;46636;-60
2022/01/05 08:30:49;;;;;;;;;2.00;1.00;;;;;21.28;33.13;100819.22;5056024;28;45453;-60
2022/01/05 08:33:15;;;;;;;;;2.50;1.00;;;;;21.26;33.15;100819.31;5055885;28;45339;-60
2022/01/05 08:35:42;;;;;;;;;2.50;1.00;;;;;21.23;33.16;100819.47;5056178;28;45645;-61
2022/01/05 08:38:08;;;;;;;;;2.00;1.00;;;;;21.23;32.84;100826.56;5055702;28;45391;-61
2022/01/05 08:40:35;;;;;;;;;2.00;2.00;;;;;21.22;32.80;100822.22;5055801;28;45264;-61
2022/01/05 08:43:03;;;;;;;;;1.25;0.25;;;;;21.17;33.13;100825.13;5056048;28;45341;-61
2022/01/05 08:45:29;;;;;;;;;1.75;1.00;;;;;21.18;33.12;100821.56;5056055;28;45569;-61
2022/01/05 08:47:56;;;;;;;;;1.00;1.00;;;;;21.16;33.27;100824.28;5055977;28;45372;-61
2022/01/05 08:50:24;;;;;;;;;3.00;1.00;;;;;21.16;32.87;100828.69;5055807;28;45668;-64
2022/01/05 08:52:50;;;;;;;;;1.00;1.00;;;;;21.15;33.08;100832.25;5055614;28;45430;-64
2022/01/05 08:55:18;;;;;;;;;0.50;0.50;;;;;21.14;33.26;100833.19;5037846;28;45326;-66
2022/01/05 08:57:44;;;;;;;;;4.25;1.00;;;;;21.12;33.41;100829.81;5055522;28;46360;-64
2022/01/05 09:00:10;;;;;;;;;0.00;0.00;;;;;21.11;33.03;100834.22;5055541;28;45818;-64
2022/01/05 09:02:37;;;;;;;;;1.25;1.25;;;;;21.10;33.35;100834.34;5055727;28;45403;-64
2022/01/05 09:05:03;;;;;;;;;3.00;0.00;;;;;21.08;33.46;100852.00;5055950;28;45343;-60
2022/01/05 09:07:29;;;;;;;;;0.00;0.00;;;;;21.07;33.38;100855.59;5055694;28;45450;-61
2022/01/05 09:09:54;;;;;;;;;1.00;1.00;;;;;21.06;33.41;100859.16;5058832;28;45438;-62
2022/01/05 09:12:20;;;;;;;;;1.75;1.75;;;;;21.04;33.59;100851.34;5040919;28;45560;-63
2022/01/05 09:14:45;;;;;;;;;1.00;1.00;;;;;21.04;33.46;100851.34;5059049;28;45322;-64
2022/01/05 09:17:10;;;;;;;;;1.25;1.25;;;;;21.03;33.13;100854.06;5058706;28;45351;-64
2022/01/05 09:19:36;;;;;;;;;3.50;1.75;;;;;21.01;33.66;100862.88;5058564;28;45413;-64
2022/01/05 09:22:03;;;;;;;;;2.00;2.00;;;;;21.01;33.17;100864.69;5058756;28;45363;-67
2022/01/05 09:24:28;;;;;;;;;2.00;0.50;;;;;20.99;33.53;100859.53;5059254;28;45355;-63
2022/01/05 09:26:57;;;;;;;;;3.00;2.00;;;;;20.98;33.33;100863.09;5058480;28;45422;-62
2022/01/05 09:29:26;;;;;;;;;2.00;2.00;;;;;20.97;33.45;100861.38;5058584;28;45645;-61
2022/01/05 09:31:51;;;;;;;;;2.00;2.00;;;;;20.97;33.29;100864.03;5058522;28;45351;-61
2022/01/05 09:34:17;;;;;;;;;3.00;2.00;;;;;20.97;33.29;100873.69;5058603;28;45587;-61
2022/01/05 09:36:48;;;;;;;;;4.50;2.50;;;;;20.96;33.43;100878.13;5058276;28;47291;-61
2022/01/05 09:41:57;;;;;;;;;1.00;1.00;;;;;20.93;33.76;100886.19;5058704;28;45347;-61
2022/01/05 09:44:35;;;;;;;;;1.00;1.00;;;;;20.94;33.66;100889.69;5058660;28;45583;-60
2022/01/05 09:47:54;;;;;;;;;3.75;2.00;;;;;20.93;33.41;100901.16;5058726;28;46054;-61
2022/01/05 09:50:21;;;;;;;;;1.50;1.00;;;;;20.91;33.88;100898.59;4996166;28;45292;-61
2022/01/05 09:52:47;;;;;;;;;1.75;1.00;;;;;20.89;34.00;100903.09;5053699;28;45418;-61
2022/01/05 09:55:14;;;;;;;;;1.75;1.75;;;;;20.91;34.00;100903.88;5058332;28;45518;-61
2022/01/05 09:57:42;;;;;;;;;5.00;4.00;;;;;20.90;33.88;100907.44;5057920;28;45442;-61
2022/01/05 10:00:11;;;;;;;;;5.50;5.00;;;;;20.88;33.63;100911.09;5039996;28;46008;-61
2022/01/05 10:02:36;;;;;;;;;7.75;4.50;;;;;20.88;34.18;100925.13;5058123;28;45653;-60
2022/01/05 10:05:03;;;;;;;;;6.75;5.25;;;;;20.86;34.04;100921.72;5058350;28;45598;-60
2022/01/05 10:07:28;;;;;;;;;5.25;4.25;;;;;20.87;33.96;100925.19;5040004;28;46900;-61
2022/01/05 10:09:54;;;;;;;;;5.25;4.00;;;;;20.85;33.86;100925.31;5058028;28;45495;-61
2022/01/05 10:12:20;;;;;;;;;6.50;5.00;;;;;20.85;33.57;100923.50;5057908;28;45605;-61
2022/01/05 10:14:48;;;;;;;;;5.00;5.00;;;;;20.86;33.58;100927.00;5057939;28;45406;-61
2022/01/05 10:17:23;;;;;;;;;6.00;5.00;;;;;20.84;33.98;100926.22;5039276;28;47684;-61
2022/01/05 10:19:58;;;;;;;;;3.25;3.25;;;;;20.84;33.51;100926.22;5056600;28;45295;-61
2022/01/05 10:22:36;;;;;;;;;3.50;3.50;;;;;20.82;33.58;100933.38;5039690;28;45379;-61
2022/01/05 10:25:07;;;;;;;;;4.00;4.00;;;;;20.82;33.83;100947.41;5058274;28;45458;-60
2022/01/05 10:27:34;;;;;;;;;7.75;4.75;;;;;20.83;33.92;100950.88;5057779;28;46301;-60
2022/01/05 10:30:04;;;;;;;;;4.75;4.75;;;;;20.82;34.10;100936.88;5057940;28;45694;-60
2022/01/05 10:32:32;;;;;;;;;5.25;4.00;;;;;20.77;33.48;100930.97;5058081;28;45390;-60
2022/01/05 10:35:10;;;;;;;;;3.00;3.00;;;;;20.79;34.09;100944.06;5057873;28;45513;-60
2022/01/05 10:37:39;;;;;;;;;4.75;3.00;;;;;20.78;34.08;100945.84;5057626;28;46462;-60
2022/01/05 10:40:12;;;;;;;;;5.00;3.75;;;;;20.77;34.08;100944.16;5057283;28;45569;-60
2022/01/05 10:42:39;;;;;;;;;6.50;4.50;;;;;20.76;33.96;100949.53;5039379;28;45305;-61
2022/01/05 10:45:07;;;;;;;;;3.00;3.00;;;;;20.75;33.74;100956.56;5057647;28;45538;-61
2022/01/05 10:47:34;;;;;;;;;4.00;4.00;;;;;20.75;33.94;100964.44;5039341;28;46378;-60
2022/01/05 10:49:59;;;;;;;;;3.50;3.25;;;;;20.74;33.94;100960.13;5057604;28;45399;-60
2022/01/05 10:52:30;;;;;;;;;3.25;3.25;;;;;20.74;33.43;100951.34;5057450;28;45247;-59
2022/01/05 10:55:16;;;;;;;;;4.00;3.00;;;;;20.73;33.53;100952.28;5057726;28;45530;-60
2022/01/05 10:58:02;;;;;;;;;4.00;3.25;;;;;20.73;33.75;100957.53;5057062;28;46487;-60
2022/01/05 11:00:33;;;;;;;;;3.00;3.00;;;;;20.70;34.15;100956.78;5057267;28;45382;-60
2022/01/05 11:02:59;;;;;;;;;3.00;3.00;;;;;20.69;33.84;100955.06;5039061;28;45316;-60
2022/01/05 11:05:25;;;;;;;;;5.75;4.00;;;;;20.69;33.36;100955.06;5057537;28;45785;-61
2022/01/05 11:07:50;;;;;;;;;3.00;3.00;;;;;20.69;33.78;100962.13;5038792;28;47902;-61
2022/01/05 11:10:18;;;;;;;;;4.25;3.25;;;;;20.69;33.64;100956.88;5056872;28;45279;-61
2022/01/05 11:12:45;;;;;;;;;1.75;1.75;;;;;20.67;33.53;100954.28;5056917;28;45412;-61
2022/01/05 11:15:30;;;;;;;;;3.50;2.25;;;;;20.68;33.67;100961.25;5057376;28;45335;-61
2022/01/05 11:18:16;;;;;;;;;3.75;3.00;;;;;20.67;33.41;100953.47;5056782;28;46426;-61
2022/01/05 11:20:43;;;;;;;;;4.25;2.25;;;;;20.65;33.94;100956.19;5056822;28;45249;-61
2022/01/05 11:23:09;;;;;;;;;2.50;2.00;;;;;20.65;33.69;100957.94;5057059;28;45198;-61